sensor_id;sensor_type;location;lat;lon;timestamp;pressure;altitude;pressure_sealevel;temperature;humidity
38285;BME280;24088;42.664;23.354;2022-12-07T00:00:18;95054.06;;;5.96;100.00
38285;BME280;24088;42.664;23.354;2022-12-07T00:01:19;95053.28;;;5.95;100.00
38285;BME280;24088;42.664;23.354;2022-12-07T00:02:21;95052.50;;;5.98;100.00
38285;BME280;24088;42.664;23.354;2022-12-07T00:03:23;95048.59;;;5.99;100.00
38285;BME280;24088;42.664;23.354;2022-12-07T00:04:24;95056.78;;;5.99;100.00
38285;BME280;24088;42.664;23.354;2022-12-07T00:05:26;95062.63;;;5.98;100.00
38285;BME280;24088;42.664;23.354;2022-12-07T00:06:26;95056.78;;;5.96;100.00
38285;BME280;24088;42.664;23.354;2022-12-07T00:07:28;95059.88;;;5.94;100.00
38285;BME280;24088;42.664;23.354;2022-12-07T00:08:28;95047.44;;;5.93;100.00
38285;BME280;24088;42.664;23.354;2022-12-07T00:09:32;95054.06;;;5.96;100.00
38285;BME280;24088;42.664;23.354;2022-12-07T00:10:33;95049.00;;;5.98;100.00
38285;BME280;24088;42.664;23.354;2022-12-07T00:11:34;95046.25;;;5.94;100.00
38285;BME280;24088;42.664;23.354;2022-12-07T00:12:35;95053.66;;;5.97;100.00
38285;BME280;24088;42.664;23.354;2022-12-07T00:13:36;95059.50;;;5.92;100.00
38285;BME280;24088;42.664;23.354;2022-12-07T00:14:38;95053.28;;;5.95;100.00
38285;BME280;24088;42.664;23.354;2022-12-07T00:15:39;95043.53;;;5.98;100.00
38285;BME280;24088;42.664;23.354;2022-12-07T00:16:40;95052.84;;;5.86;100.00
38285;BME280;24088;42.664;23.354;2022-12-07T00:17:41;95055.97;;;5.88;100.00
38285;BME280;24088;42.664;23.354;2022-12-07T00:18:43;95049.38;;;5.93;100.00
38285;BME280;24088;42.664;23.354;2022-12-07T00:19:43;95045.91;;;5.96;100.00
38285;BME280;24088;42.664;23.354;2022-12-07T00:20:45;95051.34;;;5.96;100.00
38285;BME280;24088;42.664;23.354;2022-12-07T00:21:45;95049.38;;;5.93;100.00
38285;BME280;24088;42.664;23.354;2022-12-07T00:22:47;95044.31;;;5.91;100.00
38285;BME280;24088;42.664;23.354;2022-12-07T00:23:48;95041.19;;;5.89;100.00
38285;BME280;24088;42.664;23.354;2022-12-07T00:24:51;95045.13;;;5.95;100.00
38285;BME280;24088;42.664;23.354;2022-12-07T00:25:51;95043.53;;;5.98;100.00
38285;BME280;24088;42.664;23.354;2022-12-07T00:26:53;95047.41;;;5.83;100.00
38285;BME280;24088;42.664;23.354;2022-12-07T00:27:54;95040.41;;;5.74;100.00
38285;BME280;24088;42.664;23.354;2022-12-07T00:28:56;95048.16;;;5.76;100.00
38285;BME280;24088;42.664;23.354;2022-12-07T00:29:58;95050.50;;;5.85;100.00
38285;BME280;24088;42.664;23.354;2022-12-07T00:31:00;95043.13;;;5.85;100.00
38285;BME280;24088;42.664;23.354;2022-12-07T00:32:01;95047.41;;;5.83;100.00
38285;BME280;24088;42.664;23.354;2022-12-07T00:33:03;95046.63;;;5.86;100.00
38285;BME280;24088;42.664;23.354;2022-12-07T00:34:04;95042.38;;;5.92;100.00
38285;BME280;24088;42.664;23.354;2022-12-07T00:35:06;95037.72;;;5.92;100.00
38285;BME280;24088;42.664;23.354;2022-12-07T00:36:07;95039.63;;;5.88;100.00
38285;BME280;24088;42.664;23.354;2022-12-07T00:37:09;95050.56;;;5.92;100.00
38285;BME280;24088;42.664;23.354;2022-12-07T00:38:09;95050.56;;;5.95;100.00
38285;BME280;24088;42.664;23.354;2022-12-07T00:39:11;95056.00;;;5.92;100.00
38285;BME280;24088;42.664;23.354;2022-12-07T00:40:13;95055.97;;;5.88;100.00
38285;BME280;24088;42.664;23.354;2022-12-07T00:41:16;95054.03;;;5.89;100.00
38285;BME280;24088;42.664;23.354;2022-12-07T00:42:17;95057.91;;;5.88;100.00
38285;BME280;24088;42.664;23.354;2022-12-07T00:43:18;95052.84;;;5.86;100.00
38285;BME280;24088;42.664;23.354;2022-12-07T00:44:19;95054.03;;;5.89;100.00
38285;BME280;24088;42.664;23.354;2022-12-07T00:45:20;95052.47;;;5.88;100.00
38285;BME280;24088;42.664;23.354;2022-12-07T00:46:21;95040.41;;;5.89;100.00
38285;BME280;24088;42.664;23.354;2022-12-07T00:47:23;95042.75;;;5.94;100.00
38285;BME280;24088;42.664;23.354;2022-12-07T00:48:24;95037.72;;;5.96;100.00
38285;BME280;24088;42.664;23.354;2022-12-07T00:49:25;95039.66;;;5.95;100.00
38285;BME280;24088;42.664;23.354;2022-12-07T00:50:26;95050.16;;;5.93;100.00
38285;BME280;24088;42.664;23.354;2022-12-07T00:51:27;95047.84;;;5.92;100.00
38285;BME280;24088;42.664;23.354;2022-12-07T00:52:28;95045.84;;;5.85;100.00
38285;BME280;24088;42.664;23.354;2022-12-07T00:53:29;95040.41;;;5.85;100.00
38285;BME280;24088;42.664;23.354;2022-12-07T00:54:30;95034.94;;;5.89;100.00
38285;BME280;24088;42.664;23.354;2022-12-07T00:55:33;95041.59;;;5.95;100.00
38285;BME280;24088;42.664;23.354;2022-12-07T00:56:34;95038.84;;;5.91;100.00
38285;BME280;24088;42.664;23.354;2022-12-07T00:57:36;95035.72;;;5.89;100.00
38285;BME280;24088;42.664;23.354;2022-12-07T00:58:36;95040.03;;;5.94;100.00
38285;BME280;24088;42.664;23.354;2022-12-07T00:59:38;95037.28;;;5.90;100.00
38285;BME280;24088;42.664;23.354;2022-12-07T01:00:39;95038.84;;;5.88;100.00
38285;BME280;24088;42.664;23.354;2022-12-07T01:01:40;95031.84;;;5.87;100.00
38285;BME280;24088;42.664;23.354;2022-12-07T01:02:41;95036.50;;;5.90;100.00
38285;BME280;24088;42.664;23.354;2022-12-07T01:03:43;95034.19;;;5.88;100.00
38285;BME280;24088;42.664;23.354;2022-12-07T01:04:43;95038.88;;;5.95;100.00
38285;BME280;24088;42.664;23.354;2022-12-07T01:05:51;95038.84;;;5.88;100.00
38285;BME280;24088;42.664;23.354;2022-12-07T01:06:52;95038.06;;;5.84;100.00
38285;BME280;24088;42.664;23.354;2022-12-07T01:07:53;95028.31;;;5.90;100.00
38285;BME280;24088;42.664;23.354;2022-12-07T01:08:54;95032.22;;;5.89;100.00
38285;BME280;24088;42.664;23.354;2022-12-07T01:09:55;95036.50;;;5.90;100.00
38285;BME280;24088;42.664;23.354;2022-12-07T01:11:01;95036.53;;;5.97;100.00
38285;BME280;24088;42.664;23.354;2022-12-07T01:12:03;95036.56;;;6.00;100.00
38285;BME280;24088;42.664;23.354;2022-12-07T01:13:05;95040.41;;;5.99;100.00
38285;BME280;24088;42.664;23.354;2022-12-07T01:14:06;95033.81;;;5.97;100.00
38285;BME280;24088;42.664;23.354;2022-12-07T01:15:08;95036.94;;;5.95;100.00
38285;BME280;24088;42.664;23.354;2022-12-07T01:16:09;95028.78;;;5.95;100.00
38285;BME280;24088;42.664;23.354;2022-12-07T01:17:11;95035.38;;;5.98;100.00
38285;BME280;24088;42.664;23.354;2022-12-07T01:18:11;95033.81;;;5.97;100.00
38285;BME280;24088;42.664;23.354;2022-12-07T01:19:13;95034.22;;;5.92;100.00
38285;BME280;24088;42.664;23.354;2022-12-07T01:20:13;95032.22;;;5.89;100.00
38285;BME280;24088;42.664;23.354;2022-12-07T01:21:16;95036.53;;;5.93;100.00
38285;BME280;24088;42.664;23.354;2022-12-07T01:22:17;95032.28;;;5.96;100.00
38285;BME280;24088;42.664;23.354;2022-12-07T01:23:18;95032.66;;;5.98;100.00
38285;BME280;24088;42.664;23.354;2022-12-07T01:24:19;95030.31;;;5.96;100.00
38285;BME280;24088;42.664;23.354;2022-12-07T01:25:20;95023.31;;;5.95;100.00
38285;BME280;24088;42.664;23.354;2022-12-07T01:26:23;95023.31;;;5.92;100.00
38285;BME280;24088;42.664;23.354;2022-12-07T01:27:24;95024.47;;;5.94;100.00
38285;BME280;24088;42.664;23.354;2022-12-07T01:28:25;95018.97;;;5.91;100.00
38285;BME280;24088;42.664;23.354;2022-12-07T01:29:27;95024.81;;;5.89;100.00
38285;BME280;24088;42.664;23.354;2022-12-07T01:30:28;95022.50;;;5.91;100.00
38285;BME280;24088;42.664;23.354;2022-12-07T01:31:29;95019.03;;;5.94;100.00
38285;BME280;24088;42.664;23.354;2022-12-07T01:32:30;95023.31;;;5.92;100.00
38285;BME280;24088;42.664;23.354;2022-12-07T01:33:32;95022.91;;;5.93;100.00
38285;BME280;24088;42.664;23.354;2022-12-07T01:34:33;95018.59;;;5.89;100.00
38285;BME280;24088;42.664;23.354;2022-12-07T01:35:35;95022.13;;;5.93;100.00
38285;BME280;24088;42.664;23.354;2022-12-07T01:36:36;95022.91;;;5.93;100.00
38285;BME280;24088;42.664;23.354;2022-12-07T01:37:38;95020.53;;;5.85;100.00
38285;BME280;24088;42.664;23.354;2022-12-07T01:38:39;95015.88;;;5.78;100.00
38285;BME280;24088;42.664;23.354;2022-12-07T01:39:41;95027.16;;;5.76;100.00
38285;BME280;24088;42.664;23.354;2022-12-07T01:40:41;95020.91;;;5.72;100.00
38285;BME280;24088;42.664;23.354;2022-12-07T01:41:44;95022.88;;;5.75;100.00
38285;BME280;24088;42.664;23.354;2022-12-07T01:42:45;95018.97;;;5.73;100.00
38285;BME280;24088;42.664;23.354;2022-12-07T01:46:26;95024.81;;;5.71;100.00
38285;BME280;24088;42.664;23.354;2022-12-07T01:47:27;95030.28;;;5.75;100.00
38285;BME280;24088;42.664;23.354;2022-12-07T01:48:29;95024.41;;;5.69;100.00
38285;BME280;24088;42.664;23.354;2022-12-07T01:49:33;95018.97;;;5.69;100.00
38285;BME280;24088;42.664;23.354;2022-12-07T01:50:35;95027.53;;;5.71;100.00
38285;BME280;24088;42.664;23.354;2022-12-07T01:51:37;95029.09;;;5.72;100.00
38285;BME280;24088;42.664;23.354;2022-12-07T01:52:39;95022.88;;;5.72;100.00
38285;BME280;24088;42.664;23.354;2022-12-07T01:53:42;95017.03;;;5.77;100.00
38285;BME280;24088;42.664;23.354;2022-12-07T01:54:44;95017.81;;;5.81;100.00
38285;BME280;24088;42.664;23.354;2022-12-07T01:55:47;95011.59;;;5.77;100.00
38285;BME280;24088;42.664;23.354;2022-12-07T01:56:51;95013.94;;;5.71;100.00
38285;BME280;24088;42.664;23.354;2022-12-07T01:57:54;95010.44;;;5.71;100.00
38285;BME280;24088;42.664;23.354;2022-12-07T01:58:55;95010.41;;;5.78;100.00
38285;BME280;24088;42.664;23.354;2022-12-07T01:59:58;95016.25;;;5.76;100.00
38285;BME280;24088;42.664;23.354;2022-12-07T02:00:59;95010.81;;;5.80;100.00
38285;BME280;24088;42.664;23.354;2022-12-07T02:02:02;95010.03;;;5.72;100.00
38285;BME280;24088;42.664;23.354;2022-12-07T02:03:05;95004.22;;;5.74;100.00
38285;BME280;24088;42.664;23.354;2022-12-07T02:04:08;95003.81;;;5.75;100.00
38285;BME280;24088;42.664;23.354;2022-12-07T02:05:09;95006.16;;;5.70;100.00
38285;BME280;24088;42.664;23.354;2022-12-07T02:06:12;94999.13;;;5.69;100.00
38285;BME280;24088;42.664;23.354;2022-12-07T02:07:14;94994.47;;;5.66;100.00
38285;BME280;24088;42.664;23.354;2022-12-07T02:08:16;94996.41;;;5.69;100.00
38285;BME280;24088;42.664;23.354;2022-12-07T02:09:17;94996.41;;;5.76;100.00
38285;BME280;24088;42.664;23.354;2022-12-07T02:10:19;94996.03;;;5.81;100.00
38285;BME280;24088;42.664;23.354;2022-12-07T02:11:21;95006.19;;;6.02;100.00
38285;BME280;24088;42.664;23.354;2022-12-07T02:12:32;95000.34;;;6.14;100.00
38285;BME280;24088;42.664;23.354;2022-12-07T02:13:33;95000.34;;;6.14;100.00
38285;BME280;24088;42.664;23.354;2022-12-07T02:14:35;95001.13;;;6.22;100.00
38285;BME280;24088;42.664;23.354;2022-12-07T02:15:39;95004.63;;;6.26;100.00
38285;BME280;24088;42.664;23.354;2022-12-07T02:16:46;94999.94;;;6.23;100.00
38285;BME280;24088;42.664;23.354;2022-12-07T02:17:49;95004.63;;;6.26;100.00
38285;BME280;24088;42.664;23.354;2022-12-07T02:18:59;95005.75;;;6.25;100.00
38285;BME280;24088;42.664;23.354;2022-12-07T02:20:16;95003.84;;;6.25;100.00
38285;BME280;24088;42.664;23.354;2022-12-07T02:21:24;94995.66;;;6.25;100.00
38285;BME280;24088;42.664;23.354;2022-12-07T02:23:50;95000.31;;;6.28;100.00
38285;BME280;24088;42.664;23.354;2022-12-07T02:25:01;95006.56;;;6.22;100.00
38285;BME280;24088;42.664;23.354;2022-12-07T02:26:24;95002.66;;;6.19;100.00
38285;BME280;24088;42.664;23.354;2022-12-07T02:27:38;95004.63;;;6.26;100.00
38285;BME280;24088;42.664;23.354;2022-12-07T02:28:48;95003.03;;;6.32;100.00
38285;BME280;24088;42.664;23.354;2022-12-07T02:29:53;94996.44;;;6.30;100.00
38285;BME280;24088;42.664;23.354;2022-12-07T02:31:01;94996.44;;;6.26;100.00
38285;BME280;24088;42.664;23.354;2022-12-07T02:32:04;94989.81;;;6.23;100.00
38285;BME280;24088;42.664;23.354;2022-12-07T02:33:08;94980.84;;;6.16;100.00
38285;BME280;24088;42.664;23.354;2022-12-07T02:34:15;94981.25;;;6.18;100.00
38285;BME280;24088;42.664;23.354;2022-12-07T02:35:20;94976.19;;;6.20;100.00
38285;BME280;24088;42.664;23.354;2022-12-07T02:36:24;94978.91;;;6.27;100.00
38285;BME280;24088;42.664;23.354;2022-12-07T02:37:28;94983.19;;;6.28;100.00
38285;BME280;24088;42.664;23.354;2022-12-07T02:38:35;94983.19;;;6.24;100.00
38285;BME280;24088;42.664;23.354;2022-12-07T02:39:40;94980.84;;;6.23;100.00
38285;BME280;24088;42.664;23.354;2022-12-07T02:40:46;94979.69;;;6.24;100.00
38285;BME280;24088;42.664;23.354;2022-12-07T02:41:51;94983.56;;;6.26;100.00
38285;BME280;24088;42.664;23.354;2022-12-07T02:42:53;94982.03;;;6.25;100.00
38285;BME280;24088;42.664;23.354;2022-12-07T02:43:59;94985.91;;;6.35;100.00
38285;BME280;24088;42.664;23.354;2022-12-07T02:45:00;94993.31;;;6.27;100.00
38285;BME280;24088;42.664;23.354;2022-12-07T02:46:03;94992.13;;;6.25;100.00
38285;BME280;24088;42.664;23.354;2022-12-07T02:47:05;94989.44;;;6.21;100.00
38285;BME280;24088;42.664;23.354;2022-12-07T02:48:08;94989.03;;;6.12;100.00
38285;BME280;24088;42.664;23.354;2022-12-07T02:49:11;94987.47;;;5.86;100.00
38285;BME280;24088;42.664;23.354;2022-12-07T02:50:12;94985.94;;;6.07;100.00
38285;BME280;24088;42.664;23.354;2022-12-07T02:51:14;94989.81;;;5.84;100.00
38285;BME280;24088;42.664;23.354;2022-12-07T02:52:14;94994.84;;;5.71;100.00
38285;BME280;24088;42.664;23.354;2022-12-07T02:53:29;94988.25;;;5.65;100.00
38285;BME280;24088;42.664;23.354;2022-12-07T02:54:29;94982.03;;;5.61;100.00
38285;BME280;24088;42.664;23.354;2022-12-07T02:55:32;94990.19;;;5.61;100.00
38285;BME280;24088;42.664;23.354;2022-12-07T02:56:36;94994.09;;;5.71;100.00
38285;BME280;24088;42.664;23.354;2022-12-07T02:57:44;94991.34;;;5.71;100.00
38285;BME280;24088;42.664;23.354;2022-12-07T02:58:50;94980.06;;;5.69;100.00
38285;BME280;24088;42.664;23.354;2022-12-07T03:00:03;94980.06;;;5.72;100.00
38285;BME280;24088;42.664;23.354;2022-12-07T03:01:07;94986.28;;;5.73;100.00
38285;BME280;24088;42.664;23.354;2022-12-07T03:02:15;94985.91;;;5.78;100.00
38285;BME280;24088;42.664;23.354;2022-12-07T03:03:18;94981.63;;;5.73;100.00
38285;BME280;24088;42.664;23.354;2022-12-07T03:04:23;94966.81;;;5.60;100.00
38285;BME280;24088;42.664;23.354;2022-12-07T03:05:31;94980.84;;;5.66;100.00
38285;BME280;24088;42.664;23.354;2022-12-07T03:06:39;94978.13;;;5.62;100.00
38285;BME280;24088;42.664;23.354;2022-12-07T03:07:44;94976.56;;;5.54;100.00
38285;BME280;24088;42.664;23.354;2022-12-07T03:08:51;94978.91;;;5.59;100.00
38285;BME280;24088;42.664;23.354;2022-12-07T03:09:57;94970.75;;;5.66;100.00
38285;BME280;24088;42.664;23.354;2022-12-07T03:11:02;94975.38;;;5.69;100.00
38285;BME280;24088;42.664;23.354;2022-12-07T03:12:05;94968.00;;;5.59;100.00
38285;BME280;24088;42.664;23.354;2022-12-07T03:13:11;94963.72;;;5.51;100.00
38285;BME280;24088;42.664;23.354;2022-12-07T03:14:15;94967.22;;;5.51;100.00
38285;BME280;24088;42.664;23.354;2022-12-07T03:15:21;94959.44;;;5.46;100.00
38285;BME280;24088;42.664;23.354;2022-12-07T03:16:27;94959.41;;;5.39;100.00
38285;BME280;24088;42.664;23.354;2022-12-07T03:17:31;94969.13;;;5.33;100.00
38285;BME280;24088;42.664;23.354;2022-12-07T03:18:35;94962.13;;;5.39;100.00
38285;BME280;24088;42.664;23.354;2022-12-07T03:19:39;94974.59;;;5.33;100.00
38285;BME280;24088;42.664;23.354;2022-12-07T03:20:40;94962.50;;;5.31;100.00
38285;BME280;24088;42.664;23.354;2022-12-07T03:21:46;94964.88;;;5.36;100.00
38285;BME280;24088;42.664;23.354;2022-12-07T03:22:47;94965.25;;;5.38;100.00
38285;BME280;24088;42.664;23.354;2022-12-07T03:23:50;94966.03;;;5.38;100.00
38285;BME280;24088;42.664;23.354;2022-12-07T03:24:52;94964.06;;;5.35;100.00
38285;BME280;24088;42.664;23.354;2022-12-07T03:25:56;94959.00;;;5.30;100.00
38285;BME280;24088;42.664;23.354;2022-12-07T03:26:59;94954.75;;;5.36;100.00
38285;BME280;24088;42.664;23.354;2022-12-07T03:28:04;94958.63;;;5.39;100.00
38285;BME280;24088;42.664;23.354;2022-12-07T03:29:07;94960.56;;;5.35;100.00
38285;BME280;24088;42.664;23.354;2022-12-07T03:30:12;94962.91;;;5.25;100.00
38285;BME280;24088;42.664;23.354;2022-12-07T03:31:17;94971.44;;;5.20;100.00
38285;BME280;24088;42.664;23.354;2022-12-07T03:32:22;94978.06;;;5.30;100.00
38285;BME280;24088;42.664;23.354;2022-12-07T03:33:26;94971.84;;;5.30;100.00
38285;BME280;24088;42.664;23.354;2022-12-07T03:34:31;94972.63;;;5.30;100.00
38285;BME280;24088;42.664;23.354;2022-12-07T03:35:34;94967.56;;;5.28;100.00
38285;BME280;24088;42.664;23.354;2022-12-07T03:36:39;94970.31;;;5.28;100.00
38285;BME280;24088;42.664;23.354;2022-12-07T03:37:42;94974.56;;;5.30;100.00
38285;BME280;24088;42.664;23.354;2022-12-07T03:38:47;94980.00;;;5.26;100.00
38285;BME280;24088;42.664;23.354;2022-12-07T03:39:52;94972.22;;;5.24;100.00
38285;BME280;24088;42.664;23.354;2022-12-07T03:40:59;94972.22;;;5.17;100.00
38285;BME280;24088;42.664;23.354;2022-12-07T03:42:00;94971.44;;;5.20;100.00
38285;BME280;24088;42.664;23.354;2022-12-07T03:43:04;94973.38;;;5.16;100.00
38285;BME280;24088;42.664;23.354;2022-12-07T03:44:05;94968.72;;;5.17;100.00
38285;BME280;24088;42.664;23.354;2022-12-07T03:45:07;94971.06;;;5.15;100.00
38285;BME280;24088;42.664;23.354;2022-12-07T03:46:10;94971.03;;;5.08;100.00
38285;BME280;24088;42.664;23.354;2022-12-07T03:47:19;94965.97;;;5.06;100.00
38285;BME280;24088;42.664;23.354;2022-12-07T03:48:24;94969.47;;;5.07;100.00
38285;BME280;24088;42.664;23.354;2022-12-07T03:49:28;94973.38;;;5.13;100.00
38285;BME280;24088;42.664;23.354;2022-12-07T03:50:31;94970.28;;;5.14;100.00
38285;BME280;24088;42.664;23.354;2022-12-07T03:51:38;94969.88;;;5.16;100.00
38285;BME280;24088;42.664;23.354;2022-12-07T03:52:41;94963.28;;;5.17;100.00
38285;BME280;24088;42.664;23.354;2022-12-07T03:53:44;94969.47;;;5.14;100.00
38285;BME280;24088;42.664;23.354;2022-12-07T03:54:48;94965.63;;;5.15;100.00
38285;BME280;24088;42.664;23.354;2022-12-07T03:55:53;94963.25;;;5.13;100.00
38285;BME280;24088;42.664;23.354;2022-12-07T03:56:54;94967.16;;;5.12;100.00
38285;BME280;24088;42.664;23.354;2022-12-07T03:57:59;94962.47;;;5.09;100.00
38285;BME280;24088;42.664;23.354;2022-12-07T03:59:02;94961.31;;;5.14;100.00
38285;BME280;24088;42.664;23.354;2022-12-07T04:00:04;94959.75;;;5.06;100.00
38285;BME280;24088;42.664;23.354;2022-12-07T04:01:05;94964.41;;;5.01;100.00
38285;BME280;24088;42.664;23.354;2022-12-07T04:02:07;94960.53;;;5.02;100.00
38285;BME280;24088;42.664;23.354;2022-12-07T04:03:12;94958.97;;;4.98;100.00
38285;BME280;24088;42.664;23.354;2022-12-07T04:04:14;94959.72;;;4.98;100.00
38285;BME280;24088;42.664;23.354;2022-12-07T04:05:16;94958.56;;;4.99;100.00
38285;BME280;24088;42.664;23.354;2022-12-07T04:06:18;94960.13;;;5.00;100.00
38285;BME280;24088;42.664;23.354;2022-12-07T04:07:18;94965.97;;;5.06;100.00
38285;BME280;24088;42.664;23.354;2022-12-07T04:08:20;94959.75;;;5.06;100.00
38285;BME280;24088;42.664;23.354;2022-12-07T04:09:21;94955.47;;;5.08;100.00
38285;BME280;24088;42.664;23.354;2022-12-07T04:10:22;94955.50;;;5.12;100.00
38285;BME280;24088;42.664;23.354;2022-12-07T04:11:23;94954.69;;;5.08;100.00
38285;BME280;24088;42.664;23.354;2022-12-07T04:12:24;94959.34;;;5.03;100.00
38285;BME280;24088;42.664;23.354;2022-12-07T04:13:25;94957.81;;;5.02;100.00
38285;BME280;24088;42.664;23.354;2022-12-07T04:14:26;94962.06;;;5.00;100.00
38285;BME280;24088;42.664;23.354;2022-12-07T04:15:27;94958.53;;;4.96;100.00
38285;BME280;24088;42.664;23.354;2022-12-07T04:16:28;94959.75;;;5.02;100.00
38285;BME280;24088;42.664;23.354;2022-12-07T04:17:29;94952.38;;;5.02;100.00
38285;BME280;24088;42.664;23.354;2022-12-07T04:18:32;94954.28;;;4.98;100.00
38285;BME280;24088;42.664;23.354;2022-12-07T04:19:33;94952.41;;;5.24;100.00
38285;BME280;24088;42.664;23.354;2022-12-07T04:20:35;94945.44;;;5.37;100.00
38285;BME280;24088;42.664;23.354;2022-12-07T04:21:35;94957.88;;;5.42;100.00
38285;BME280;24088;42.664;23.354;2022-12-07T04:22:37;94950.47;;;5.42;100.00
38285;BME280;24088;42.664;23.354;2022-12-07T04:23:37;94957.09;;;5.45;100.00
38285;BME280;24088;42.664;23.354;2022-12-07T04:24:39;94950.47;;;5.42;100.00
38285;BME280;24088;42.664;23.354;2022-12-07T04:25:41;94958.28;;;5.51;100.00
38285;BME280;24088;42.664;23.354;2022-12-07T04:26:41;94959.06;;;5.55;100.00
38285;BME280;24088;42.664;23.354;2022-12-07T04:27:43;94961.00;;;5.55;100.00
38285;BME280;24088;42.664;23.354;2022-12-07T04:28:44;94954.75;;;5.47;100.00
38285;BME280;24088;42.664;23.354;2022-12-07T04:29:45;94961.78;;;5.44;100.00
38285;BME280;24088;42.664;23.354;2022-12-07T04:30:46;94960.59;;;5.45;100.00
38285;BME280;24088;42.664;23.354;2022-12-07T04:31:47;94957.09;;;5.41;100.00
38285;BME280;24088;42.664;23.354;2022-12-07T04:32:48;94958.63;;;5.39;100.00
38285;BME280;24088;42.664;23.354;2022-12-07T04:33:51;94967.13;;;5.05;100.00
38285;BME280;24088;42.664;23.354;2022-12-07T04:34:51;94957.41;;;5.00;100.00
38285;BME280;24088;42.664;23.354;2022-12-07T04:35:53;94962.03;;;4.96;100.00
38285;BME280;24088;42.664;23.354;2022-12-07T04:36:53;94962.41;;;4.91;100.00
38285;BME280;24088;42.664;23.354;2022-12-07T04:37:55;94960.06;;;4.86;100.00
38285;BME280;24088;42.664;23.354;2022-12-07T04:38:56;94964.72;;;4.82;100.00
38285;BME280;24088;42.664;23.354;2022-12-07T04:39:57;94965.13;;;4.88;100.00
38285;BME280;24088;42.664;23.354;2022-12-07T04:40:58;94961.97;;;4.71;100.00
38285;BME280;24088;42.664;23.354;2022-12-07T04:42:00;94963.97;;;4.89;100.00
38285;BME280;24088;42.664;23.354;2022-12-07T04:43:01;94971.78;;;4.94;100.00
38285;BME280;24088;42.664;23.354;2022-12-07T04:44:03;94968.66;;;4.99;100.00
38285;BME280;24088;42.664;23.354;2022-12-07T04:45:07;94968.28;;;5.00;100.00
38285;BME280;24088;42.664;23.354;2022-12-07T04:46:09;94969.47;;;5.03;100.00
38285;BME280;24088;42.664;23.354;2022-12-07T04:47:09;94967.94;;;5.06;100.00
38285;BME280;24088;42.664;23.354;2022-12-07T04:48:11;94965.56;;;4.97;100.00
38285;BME280;24088;42.664;23.354;2022-12-07T04:49:13;94977.22;;;4.94;100.00
38285;BME280;24088;42.664;23.354;2022-12-07T04:50:15;94977.22;;;4.94;100.00
38285;BME280;24088;42.664;23.354;2022-12-07T04:51:18;94980.69;;;4.91;100.00
38285;BME280;24088;42.664;23.354;2022-12-07T04:52:20;94976.00;;;4.88;100.00
38285;BME280;24088;42.664;23.354;2022-12-07T04:53:21;94977.19;;;4.90;100.00
38285;BME280;24088;42.664;23.354;2022-12-07T04:54:22;94975.25;;;4.91;100.00
38285;BME280;24088;42.664;23.354;2022-12-07T04:55:23;94976.81;;;4.88;100.00
38285;BME280;24088;42.664;23.354;2022-12-07T04:56:24;94975.59;;;4.82;100.00
38285;BME280;24088;42.664;23.354;2022-12-07T04:57:25;94976.38;;;4.83;100.00
38285;BME280;24088;42.664;23.354;2022-12-07T04:58:27;94972.91;;;4.86;100.00
38285;BME280;24088;42.664;23.354;2022-12-07T04:59:27;94974.06;;;4.85;100.00
38285;BME280;24088;42.664;23.354;2022-12-07T05:00:29;94964.69;;;4.75;100.00
38285;BME280;24088;42.664;23.354;2022-12-07T05:01:30;94974.38;;;4.65;100.00
38285;BME280;24088;42.664;23.354;2022-12-07T05:02:32;94970.16;;;4.78;100.00
38285;BME280;24088;42.664;23.354;2022-12-07T05:03:32;94965.09;;;4.73;100.00
38285;BME280;24088;42.664;23.354;2022-12-07T05:04:37;94969.69;;;4.62;100.00
38285;BME280;24088;42.664;23.354;2022-12-07T05:05:39;94975.13;;;4.59;100.00
38285;BME280;24088;42.664;23.354;2022-12-07T05:06:41;94971.66;;;4.65;100.00
38285;BME280;24088;42.664;23.354;2022-12-07T05:07:42;94971.66;;;4.65;100.00
38285;BME280;24088;42.664;23.354;2022-12-07T05:08:43;94970.84;;;4.61;100.00
38285;BME280;24088;42.664;23.354;2022-12-07T05:09:44;94972.81;;;4.64;100.00
38285;BME280;24088;42.664;23.354;2022-12-07T05:10:45;94982.16;;;4.67;100.00
38285;BME280;24088;42.664;23.354;2022-12-07T05:11:46;94977.47;;;4.64;100.00
38285;BME280;24088;42.664;23.354;2022-12-07T05:12:47;94978.25;;;4.61;100.00
38285;BME280;24088;42.664;23.354;2022-12-07T05:13:48;94969.31;;;4.64;100.00
38285;BME280;24088;42.664;23.354;2022-12-07T05:14:50;94976.28;;;4.61;100.00
38285;BME280;24088;42.664;23.354;2022-12-07T05:15:50;94975.50;;;4.57;100.00
38285;BME280;24088;42.664;23.354;2022-12-07T05:16:52;94980.13;;;4.53;100.00
38285;BME280;24088;42.664;23.354;2022-12-07T05:17:53;94985.19;;;4.58;100.00
38285;BME280;24088;42.664;23.354;2022-12-07T05:18:55;94975.88;;;4.56;100.00
38285;BME280;24088;42.664;23.354;2022-12-07T05:19:57;94972.41;;;4.62;100.00
38285;BME280;24088;42.664;23.354;2022-12-07T05:20:58;94974.78;;;4.67;100.00
38285;BME280;24088;42.664;23.354;2022-12-07T05:21:59;94979.53;;;4.95;100.00
38285;BME280;24088;42.664;23.354;2022-12-07T05:23:00;94966.66;;;4.78;100.00
38285;BME280;24088;42.664;23.354;2022-12-07T05:24:01;94970.13;;;4.68;100.00
38285;BME280;24088;42.664;23.354;2022-12-07T05:25:02;94965.47;;;4.68;100.00
38285;BME280;24088;42.664;23.354;2022-12-07T05:26:03;94967.03;;;4.73;100.00
38285;BME280;24088;42.664;23.354;2022-12-07T05:27:05;94973.63;;;4.72;100.00
38285;BME280;24088;42.664;23.354;2022-12-07T05:28:06;94970.13;;;4.68;100.00
38285;BME280;24088;42.664;23.354;2022-12-07T05:29:07;94966.63;;;4.71;100.00
38285;BME280;24088;42.664;23.354;2022-12-07T05:30:11;94970.13;;;4.68;100.00
38285;BME280;24088;42.664;23.354;2022-12-07T05:31:12;94974.00;;;4.63;100.00